Time;durP1;ratioP1;P1;durP2;ratioP2;P2;SDS_P1;SDS_P2;PMS_P1;PMS_P2;Temp;Humidity;BMP_temperature;BMP_pressure;BME280_temperature;BME280_humidity;BME280_pressure;Samples;Min_cycle;Max_cycle;Signal;HPM_P1;HPM_P2
2022/09/09 00:02:26;;;;;;;13.80;6.50;;;;;;;9.94;70.60;99208.98;104545;1280;63066;-24
2022/09/09 00:05:01;;;;;;;15.40;7.00;;;;;;;10.54;68.23;99218.44;104467;1281;74119;-24
2022/09/09 00:07:43;;;;;;;13.30;6.70;;;;;;;10.53;67.88;99220.45;104459;1281;77004;-24
2022/09/09 00:10:16;;;;;;;13.70;7.30;;;;;;;10.39;67.95;99215.80;104379;1280;75158;-25
2022/09/09 00:12:56;;;;;;;15.00;7.30;;;;;;;10.16;68.74;99224.49;104336;1281;62917;-24
2022/09/09 00:15:42;;;;;;;12.70;7.40;;;;;;;9.92;69.67;99225.41;104451;1280;63120;-24
2022/09/09 00:18:28;;;;;;;11.50;6.50;;;;;;;9.70;70.71;99227.27;104478;1281;75513;-24
2022/09/09 00:21:05;;;;;;;8.70;5.20;;;;;;;9.53;71.30;99227.29;104505;1281;76232;-24
2022/09/09 00:23:34;;;;;;;8.40;5.00;;;;;;;9.47;71.62;99230.69;104410;1283;74422;-24
2022/09/09 00:26:10;;;;;;;11.30;5.80;;;;;;;9.93;70.87;99234.83;104484;1281;63100;-24
2022/09/09 00:29:14;;;;;;;15.00;7.30;;;;;;;10.51;68.46;99234.66;104261;1280;61863;-24
2022/09/09 00:31:42;;;;;;;12.00;5.50;;;;;;;10.55;67.88;99231.77;104411;1281;74885;-24
2022/09/09 00:34:21;;;;;;;12.30;6.20;;;;;;;10.36;68.20;99227.65;104225;1280;76829;-24
2022/09/09 00:36:49;;;;;;;15.10;6.90;;;;;;;10.19;68.55;99232.93;104205;1281;75714;-24
2022/09/09 00:39:22;;;;;;;15.40;6.50;;;;;;;10.01;69.05;99232.03;104356;1281;63010;-25
2022/09/09 00:42:08;;;;;;;13.80;7.20;;;;;;;9.83;69.66;99234.91;104272;1281;63101;-24
2022/09/09 00:44:39;;;;;;;14.90;6.70;;;;;;;9.67;70.50;99238.18;104215;1280;74650;-24
2022/09/09 00:47:13;;;;;;;11.70;5.40;;;;;;;9.58;70.62;99236.94;103829;1281;77011;-24
2022/09/09 00:49:49;;;;;;;12.00;5.70;;;;;;;10.01;70.13;99232.22;104333;1281;73416;-25
2022/09/09 00:52:37;;;;;;;9.80;5.40;;;;;;;10.26;69.00;99219.05;104147;1280;61163;-24
2022/09/09 00:55:12;;;;;;;9.80;5.20;;;;;;;10.26;68.63;99201.98;104247;1281;62896;-24
2022/09/09 00:57:41;;;;;;;10.50;6.20;;;;;;;10.14;68.90;99200.34;104471;1281;74315;-24
2022/09/09 01:00:19;;;;;;;11.20;5.10;;;;;;;10.01;69.20;99204.28;104502;1281;74985;-24
2022/09/09 01:02:56;;;;;;;9.10;4.10;;;;;;;9.81;69.87;99206.16;104403;1280;75696;-24
2022/09/09 01:05:32;;;;;;;7.30;4.80;;;;;;;9.56;70.78;99198.45;104499;1280;62246;-24
2022/09/09 01:08:02;;;;;;;6.80;4.30;;;;;;;9.50;71.22;99192.33;104301;1281;61748;-24
2022/09/09 01:10:35;;;;;;;7.60;4.20;;;;;;;9.98;70.29;99183.85;104105;1280;76327;-25
2022/09/09 01:13:05;;;;;;;11.60;5.30;;;;;;;10.29;68.82;99182.21;104459;1280;77080;-25
2022/09/09 01:15:32;;;;;;;8.40;5.20;;;;;;;10.37;68.16;99186.46;104168;1280;73163;-24
2022/09/09 01:18:06;;;;;;;10.20;5.00;;;;;;;10.29;68.02;99188.59;104469;1280;63209;-24
2022/09/09 01:20:49;;;;;;;9.10;5.10;;;;;;;10.09;68.53;99193.80;104491;1280;63057;-24
2022/09/09 01:23:38;;;;;;;10.20;5.90;;;;;;;9.89;69.24;99194.44;104447;1281;75855;-24
2022/09/09 01:26:15;;;;;;;34.90;14.90;;;;;;;9.69;69.77;99199.92;104487;1281;76932;-24
2022/09/09 01:28:44;;;;;;;21.90;9.50;;;;;;;9.56;70.15;99199.53;104464;1281;74331;-24
2022/09/09 01:31:17;;;;;;;8.80;4.50;;;;;;;9.47;70.70;99202.41;103965;1281;63643;-24
2022/09/09 01:33:46;;;;;;;7.40;4.60;;;;;;;10.03;69.64;99197.33;104447;1281;63469;-25
2022/09/09 01:36:26;;;;;;;17.40;7.40;;;;;;;10.52;67.97;99197.77;104463;1281;76540;-24
2022/09/09 01:38:54;;;;;;;42.60;15.30;;;;;;;10.56;67.31;99205.13;104449;1281;75968;-24
2022/09/09 01:41:21;;;;;;;82.80;30.20;;;;;;;10.42;67.41;99210.35;104291;1280;74768;-24
2022/09/09 01:44:10;;;;;;;66.20;25.70;;;;;;;10.20;67.73;99208.02;104415;1280;61316;-24
2022/09/09 01:46:38;;;;;;;42.80;18.70;;;;;;;10.00;68.43;99202.41;104296;1280;63186;-24
2022/09/09 01:49:11;;;;;;;25.80;13.70;;;;;;;9.86;68.84;99192.98;104262;1280;76711;-24
2022/09/09 01:51:38;;;;;;;19.90;9.60;;;;;;;9.71;69.32;99191.64;104438;1280;77128;-24
2022/09/09 01:54:09;;;;;;;10.30;5.60;;;;;;;9.60;69.86;99191.38;104497;1281;74527;-24
2022/09/09 01:57:14;;;;;;;13.80;5.80;;;;;;;10.01;69.19;99198.35;104522;1281;62931;-24
2022/09/09 02:00:07;;;;;;;8.50;4.30;;;;;;;10.47;67.38;99199.61;103743;1287;61301;-24
2022/09/09 02:02:43;;;;;;;7.90;4.50;;;;;;;10.46;67.01;99203.80;104420;1280;76451;-25
2022/09/09 02:05:33;;;;;;;;;;;;;;;10.33;67.24;99210.66;104491;1280;77488;-24
2022/09/09 02:08:21;;;;;;;8.50;4.80;;;;;;;10.15;67.66;99221.41;104215;1281;75354;-24
2022/09/09 02:11:13;;;;;;;10.60;5.90;;;;;;;9.99;68.15;99223.13;104411;1280;61086;-25
2022/09/09 02:14:12;;;;;;;8.00;3.80;;;;;;;9.86;68.81;99225.84;104252;1280;62766;-24
2022/09/09 02:16:54;;;;;;;7.20;3.90;;;;;;;9.78;69.11;99219.55;104324;1281;76031;-24
2022/09/09 02:19:30;;;;;;;7.30;3.00;;;;;;;9.79;69.53;99218.22;104449;1281;76129;-24
2022/09/09 02:22:02;;;;;;;6.70;4.10;;;;;;;10.50;67.85;99210.08;104431;1280;75134;-24
2022/09/09 02:24:30;;;;;;;11.60;5.60;;;;;;;10.96;66.27;99200.25;104448;1280;61713;-24
2022/09/09 02:27:08;;;;;;;18.50;7.10;;;;;;;11.01;65.61;99198.10;104443;1281;63306;-24
2022/09/09 02:29:41;;;;;;;17.40;7.20;;;;;;;10.88;65.75;99196.86;104497;1281;76396;-24
2022/09/09 02:32:11;;;;;;;14.40;4.80;;;;;;;10.69;66.07;99195.95;104197;1281;77197;-25
2022/09/09 02:34:47;;;;;;;9.60;4.20;;;;;;;10.48;66.46;99195.17;104098;1280;73458;-24
2022/09/09 02:37:15;;;;;;;15.20;6.00;;;;;;;10.22;67.55;99196.56;104228;1281;61979;-24
2022/09/09 02:39:44;;;;;;;18.80;7.00;;;;;;;10.10;67.94;99197.36;104234;1281;63282;-24
2022/09/09 02:42:14;;;;;;;17.80;7.40;;;;;;;9.96;68.48;99195.63;104338;1281;76859;-24
2022/09/09 02:44:41;;;;;;;13.00;5.00;;;;;;;9.89;68.93;99199.13;104193;1280;77004;-24
2022/09/09 02:47:28;;;;;;;17.80;6.80;;;;;;;10.34;68.34;99200.69;104371;1280;75485;-24
2022/09/09 02:50:13;;;;;;;13.60;6.60;;;;;;;10.82;66.64;99198.89;104329;1281;63322;-24
2022/09/09 02:53:02;;;;;;;17.70;9.80;;;;;;;10.80;66.29;99199.41;104217;1280;63269;-25
2022/09/09 02:55:34;;;;;;;12.40;6.30;;;;;;;10.61;66.42;99195.18;104407;1281;76835;-24
2022/09/09 02:58:04;;;;;;;11.50;6.00;;;;;;;10.42;66.86;99193.73;104425;1281;77229;-24
2022/09/09 03:00:32;;;;;;;10.70;5.70;;;;;;;10.21;67.48;99190.10;104299;1281;74282;-24
2022/09/09 03:03:00;;;;;;;10.60;5.50;;;;;;;10.05;68.04;99195.98;104595;1280;63363;-25
2022/09/09 03:05:27;;;;;;;8.30;4.70;;;;;;;9.93;68.23;99195.71;104521;1281;63069;-24
2022/09/09 03:07:55;;;;;;;6.60;3.60;;;;;;;9.77;68.96;99196.41;104243;1281;76541;-24
2022/09/09 03:10:23;;;;;;;5.80;3.10;;;;;;;9.71;69.24;99197.69;104538;1281;75765;-24
2022/09/09 03:12:50;;;;;;;4.50;3.10;;;;;;;10.21;68.37;99193.02;104586;1281;75349;-25
2022/09/09 03:15:17;;;;;;;5.80;3.00;;;;;;;10.63;66.89;99191.02;104410;1281;62051;-24
2022/09/09 03:17:44;;;;;;;6.60;3.00;;;;;;;10.66;66.39;99193.55;104560;1280;61935;-23
2022/09/09 03:20:12;;;;;;;5.20;2.60;;;;;;;10.50;66.73;99196.21;104432;1280;76885;-26
2022/09/09 03:22:40;;;;;;;4.80;3.10;;;;;;;10.32;66.94;99198.63;104453;1281;77335;-26
2022/09/09 03:25:07;;;;;;;5.70;2.90;;;;;;;10.18;67.45;99195.86;104565;1281;73254;-25
2022/09/09 03:27:35;;;;;;;6.10;3.30;;;;;;;10.03;67.94;99200.49;104499;1281;63769;-25
2022/09/09 03:30:03;;;;;;;7.90;3.40;;;;;;;9.94;68.22;99201.85;104459;1281;62069;-27
2022/09/09 03:32:31;;;;;;;5.50;3.60;;;;;;;9.87;68.62;99202.41;104449;1280;76724;-25
2022/09/09 03:34:58;;;;;;;4.70;2.50;;;;;;;9.84;68.85;99204.37;104346;1281;76001;-24
2022/09/09 03:37:25;;;;;;;5.70;3.10;;;;;;;10.34;67.77;99198.67;104306;1281;74340;-25
2022/09/09 03:39:54;;;;;;;5.80;3.60;;;;;;;10.81;66.20;99197.27;104433;1281;62949;-25
2022/09/09 03:42:21;;;;;;;6.60;3.90;;;;;;;10.96;65.38;99195.73;104270;1281;63254;-24
2022/09/09 03:44:51;;;;;;;7.00;3.00;;;;;;;10.84;65.59;99189.89;104571;1280;76298;-26
2022/09/09 03:47:21;;;;;;;5.60;3.60;;;;;;;10.62;66.01;99186.05;104488;1279;77389;-25
2022/09/09 03:49:50;;;;;;;9.80;3.40;;;;;;;10.44;66.20;99182.77;104228;1281;76336;-24
2022/09/09 03:52:18;;;;;;;7.40;4.20;;;;;;;10.27;66.95;99181.83;104137;1280;61986;-24
2022/09/09 03:54:51;;;;;;;8.20;4.10;;;;;;;10.08;67.51;99182.39;104227;1280;63370;-24
2022/09/09 03:57:19;;;;;;;6.30;3.60;;;;;;;9.98;67.87;99188.18;103949;1281;76561;-25
2022/09/09 03:59:46;;;;;;;5.60;3.20;;;;;;;9.80;68.71;99187.82;104215;1281;77358;-24
2022/09/09 04:02:15;;;;;;;9.20;3.80;;;;;;;10.06;68.29;99185.17;104228;1281;75758;-24
2022/09/09 04:04:42;;;;;;;7.40;3.60;;;;;;;10.46;67.09;99185.92;104271;1280;61992;-24
2022/09/09 04:07:09;;;;;;;8.40;4.10;;;;;;;10.56;66.33;99187.41;104478;1280;63034;-24
2022/09/09 04:09:38;;;;;;;7.30;3.60;;;;;;;10.43;66.45;99177.29;104297;1280;76699;-25
2022/09/09 04:12:06;;;;;;;6.90;3.00;;;;;;;10.32;66.63;99174.48;104332;1280;76833;-24
2022/09/09 04:14:33;;;;;;;5.00;2.50;;;;;;;10.15;67.30;99170.27;104520;1281;74189;-24
2022/09/09 04:17:05;;;;;;;8.50;3.90;;;;;;;10.08;67.32;99178.96;104512;1279;62106;-24
2022/09/09 04:19:33;;;;;;;4.60;3.20;;;;;;;9.95;67.97;99191.87;104476;1281;63062;-24
2022/09/09 04:22:00;;;;;;;6.10;2.50;;;;;;;9.95;67.82;99191.67;104550;1281;75503;-24
2022/09/09 04:24:28;;;;;;;5.30;3.10;;;;;;;10.31;67.50;99182.23;104373;1281;76912;-24
2022/09/09 04:26:57;;;;;;;5.40;3.10;;;;;;;10.87;65.88;99181.14;104327;1280;74429;-24
2022/09/09 04:29:24;;;;;;;7.90;3.30;;;;;;;10.95;65.11;99191.98;104571;1281;63107;-24
2022/09/09 04:31:51;;;;;;;4.80;3.00;;;;;;;10.95;64.65;99193.74;104934;1274;61917;-24
2022/09/09 04:34:18;;;;;;;7.00;3.50;;;;;;;10.84;64.92;99191.61;104821;1272;75684;-24
2022/09/09 04:36:45;;;;;;;6.10;3.60;;;;;;;10.64;65.54;99189.23;104557;1274;75963;-25
2022/09/09 04:39:12;;;;;;;6.00;3.00;;;;;;;10.37;66.40;99184.34;104867;1274;75281;-24
2022/09/09 04:41:39;;;;;;;4.60;2.50;;;;;;;10.34;66.71;99174.18;104759;1272;61675;-24
2022/09/09 04:44:09;;;;;;;7.50;3.00;;;;;;;10.23;66.97;99172.16;104752;1274;63073;-24
2022/09/09 04:46:36;;;;;;;4.60;2.50;;;;;;;10.26;66.70;99175.13;105110;1274;75586;-24
2022/09/09 04:49:03;;;;;;;5.30;3.00;;;;;;;10.21;66.70;99174.61;104938;1274;76779;-24
2022/09/09 04:51:31;;;;;;;4.30;2.40;;;;;;;10.20;67.07;99182.71;104768;1274;73481;-24
2022/09/09 04:53:58;;;;;;;5.40;3.20;;;;;;;10.67;65.60;99182.16;104971;1274;63228;-24
2022/09/09 04:56:28;;;;;;;6.80;4.20;;;;;;;11.12;64.18;99178.13;104693;1274;61842;-24
2022/09/09 04:58:56;;;;;;;11.60;7.20;;;;;;;11.18;63.64;99179.48;104634;1274;75295;-24
2022/09/09 05:01:33;;;;;;;23.90;13.80;;;;;;;11.13;63.83;99176.08;104815;1272;77274;-24
2022/09/09 05:04:03;;;;;;;14.00;8.90;;;;;;;11.06;64.28;99175.95;104928;1271;75360;-25
2022/09/09 05:06:32;;;;;;;7.40;4.20;;;;;;;10.92;64.18;99172.41;104875;1274;63100;-24
2022/09/09 05:09:00;;;;;;;6.30;3.40;;;;;;;10.80;64.48;99166.55;105073;1274;61851;-24
2022/09/09 05:11:30;;;;;;;6.70;3.80;;;;;;;10.70;64.66;99157.98;104908;1274;76730;-24
2022/09/09 05:14:01;;;;;;;9.70;4.00;;;;;;;10.62;65.14;99159.33;104708;1274;76143;-24
2022/09/09 05:16:28;;;;;;;7.70;3.40;;;;;;;10.57;65.05;99156.77;104858;1274;74747;-25
2022/09/09 05:18:56;;;;;;;3.80;2.40;;;;;;;10.52;65.30;99160.08;104858;1274;62000;-24
2022/09/09 05:21:26;;;;;;;5.60;2.50;;;;;;;10.48;65.46;99157.80;105089;1274;63315;-24
2022/09/09 05:23:54;;;;;;;5.80;2.50;;;;;;;10.86;65.13;99161.77;104730;1274;75330;-23
2022/09/09 05:26:22;;;;;;;4.20;2.80;;;;;;;11.49;63.46;99162.18;105077;1271;76008;-23
2022/09/09 05:28:50;;;;;;;5.00;2.90;;;;;;;11.73;62.61;99160.38;104895;1272;74390;-24
2022/09/09 05:31:18;;;;;;;9.20;3.00;;;;;;;11.73;62.11;99156.71;104801;1274;61807;-25
2022/09/09 05:33:47;;;;;;;5.70;2.70;;;;;;;11.63;62.09;99158.81;104754;1274;61922;-24
2022/09/09 05:36:17;;;;;;;4.70;2.50;;;;;;;11.51;62.22;99157.66;104937;1274;76837;-24
2022/09/09 05:38:45;;;;;;;6.20;2.70;;;;;;;11.42;62.60;99158.28;104666;1271;75152;-24
2022/09/09 05:41:15;;;;;;;3.50;2.10;;;;;;;11.35;62.93;99153.31;104823;1271;75689;-23
2022/09/09 05:43:47;;;;;;;3.30;2.40;;;;;;;11.34;63.09;99147.11;104978;1271;61437;-23
2022/09/09 05:46:18;;;;;;;4.90;2.20;;;;;;;11.33;63.13;99145.46;104881;1272;63014;-23
2022/09/09 05:48:47;;;;;;;5.90;2.30;;;;;;;11.23;63.17;99145.95;104744;1274;74457;-23
2022/09/09 05:51:17;;;;;;;4.10;2.30;;;;;;;11.22;63.02;99146.92;104596;1274;75942;-24
2022/09/09 05:53:45;;;;;;;3.90;2.50;;;;;;;11.20;63.34;99154.35;104441;1274;75257;-24
2022/09/09 05:56:17;;;;;;;5.30;3.50;;;;;;;11.19;63.36;99155.67;104587;1273;62893;-24
2022/09/09 05:58:46;;;;;;;7.60;2.20;;;;;;;11.18;63.43;99163.05;105071;1272;60978;-24
2022/09/09 06:01:21;;;;;;;7.50;3.20;;;;;;;11.13;63.74;99163.20;104890;1271;76376;-24
2022/09/09 06:03:49;;;;;;;4.40;2.40;;;;;;;11.11;63.73;99174.19;105008;1274;75928;-24
2022/09/09 06:06:22;;;;;;;7.10;2.50;;;;;;;11.10;63.76;99172.70;104774;1274;75386;-25
2022/09/09 06:08:54;;;;;;;6.10;2.40;;;;;;;11.09;63.71;99173.33;104748;1274;62026;-24
2022/09/09 06:11:23;;;;;;;5.50;2.50;;;;;;;11.08;63.98;99177.19;104795;1274;62072;-25
2022/09/09 06:13:53;;;;;;;5.00;2.50;;;;;;;11.09;63.75;99181.10;104640;1274;75577;-25
2022/09/09 06:16:26;;;;;;;6.20;2.50;;;;;;;11.08;63.78;99186.93;104671;1274;76167;-23
2022/09/09 06:18:54;;;;;;;4.70;2.70;;;;;;;11.07;63.87;99191.69;104903;1274;75383;-24
2022/09/09 06:21:27;;;;;;;6.00;2.30;;;;;;;11.08;64.42;99189.92;104591;1274;64425;-24
2022/09/09 06:23:54;;;;;;;4.20;2.50;;;;;;;11.63;63.49;99190.92;105086;1271;63307;-24
2022/09/09 06:26:31;;;;;;;3.10;1.90;;;;;;;12.09;61.87;99191.98;104851;1271;76432;-24
2022/09/09 06:28:59;;;;;;;3.90;2.60;;;;;;;12.15;61.17;99195.16;104762;1271;76992;-24
2022/09/09 06:31:30;;;;;;;3.70;2.50;;;;;;;12.05;61.60;99200.31;104658;1271;73348;-24
2022/09/09 06:34:00;;;;;;;;;;;;;;;11.91;62.24;99203.79;104774;1271;61841;-24
2022/09/09 06:36:32;;;;;;;6.10;2.30;;;;;;;11.77;63.02;99204.21;104817;1272;62746;-24
2022/09/09 06:38:59;;;;;;;4.10;2.50;;;;;;;11.60;63.87;99199.70;104930;1271;76271;-24
2022/09/09 06:41:28;;;;;;;4.60;2.70;;;;;;;11.38;64.23;99198.60;105005;1271;76755;-24
2022/09/09 06:43:55;;;;;;;4.40;2.10;;;;;;;11.20;65.83;99204.02;104906;1271;74136;-24
2022/09/09 06:46:32;;;;;;;4.50;2.30;;;;;;;11.02;67.16;99206.16;105106;1271;61150;-24
2022/09/09 06:49:00;;;;;;;6.10;3.20;;;;;;;10.84;68.42;99205.55;104869;1271;62942;-24
2022/09/09 06:51:29;;;;;;;5.70;3.10;;;;;;;11.24;69.06;99203.38;105140;1270;75494;-24
2022/09/09 06:53:58;;;;;;;5.90;2.80;;;;;;;11.56;67.40;99205.93;104844;1271;76912;-24
2022/09/09 06:56:25;;;;;;;3.60;2.30;;;;;;;11.55;67.18;99206.91;104762;1271;75388;-25
2022/09/09 06:58:52;;;;;;;7.50;2.40;;;;;;;11.40;67.93;99213.55;104617;1274;62948;-25
2022/09/09 07:01:28;;;;;;;5.70;3.00;;;;;;;11.18;68.85;99218.97;104841;1271;62243;-25
2022/09/09 07:03:58;;;;;;;5.90;3.40;;;;;;;10.99;69.88;99222.20;104650;1271;75473;-25
2022/09/09 07:06:30;;;;;;;12.50;5.50;;;;;;;10.82;71.34;99227.88;105110;1271;77266;-25
2022/09/09 07:09:03;;;;;;;11.00;4.80;;;;;;;10.67;72.15;99233.96;105100;1271;75692;-24
2022/09/09 07:11:32;;;;;;;8.60;3.50;;;;;;;11.05;71.81;99236.86;105045;1271;62099;-25
2022/09/09 07:14:00;;;;;;;6.90;3.40;;;;;;;11.37;70.35;99239.52;104762;1271;61900;-25
2022/09/09 07:16:29;;;;;;;7.40;3.20;;;;;;;11.36;71.01;99248.28;105010;1271;75548;-25
2022/09/09 07:18:57;;;;;;;5.60;2.40;;;;;;;11.18;71.82;99254.39;104952;1271;77795;-24
2022/09/09 07:21:26;;;;;;;7.60;3.40;;;;;;;10.92;72.44;99254.89;104775;1274;75366;-24
2022/09/09 07:23:53;;;;;;;4.30;2.50;;;;;;;10.72;73.35;99262.92;104717;1271;63004;-23
2022/09/09 07:26:23;;;;;;;3.50;2.00;;;;;;;10.54;74.19;99266.50;104812;1271;63069;-23
2022/09/09 07:28:50;;;;;;;4.80;2.00;;;;;;;11.00;74.81;99266.76;104743;1271;76883;-23
2022/09/09 07:31:25;;;;;;;5.10;2.10;;;;;;;11.53;73.19;99267.07;104740;1274;77009;-23
2022/09/09 07:33:53;;;;;;;3.50;2.30;;;;;;;11.59;72.61;99265.90;104760;1271;73617;-24
2022/09/09 07:36:25;;;;;;;4.00;2.60;;;;;;;11.39;72.26;99266.96;104926;1271;62196;-24
2022/09/09 07:39:07;;;;;;;4.20;2.50;;;;;;;11.12;73.34;99261.46;104828;1271;61144;-24
2022/09/09 07:41:45;;;;;;;7.90;3.70;;;;;;;10.88;74.62;99255.35;104719;1271;75942;-21
2022/09/09 07:44:14;;;;;;;9.40;5.40;;;;;;;10.73;75.76;99254.65;104817;1271;76083;-23
2022/09/09 07:46:41;;;;;;;9.40;6.00;;;;;;;11.22;75.63;99244.49;104659;1274;75121;-22
2022/09/09 07:49:10;;;;;;;6.90;4.30;;;;;;;11.63;74.78;99246.04;105066;1271;62113;-22
2022/09/09 07:51:39;;;;;;;7.30;3.20;;;;;;;11.64;73.80;99245.30;105064;1271;62237;-22
2022/09/09 07:54:09;;;;;;;6.90;2.80;;;;;;;11.44;74.33;99245.19;104954;1271;76590;-22
2022/09/09 07:56:37;;;;;;;4.60;3.10;;;;;;;11.24;74.89;99245.04;104829;1271;76774;-22
2022/09/09 07:59:06;;;;;;;5.70;3.00;;;;;;;11.05;75.27;99253.52;104709;1271;73282;-22
2022/09/09 08:01:38;;;;;;;7.90;3.00;;;;;;;10.95;76.13;99259.88;105094;1271;64762;-22
2022/09/09 08:04:08;;;;;;;5.20;2.90;;;;;;;11.42;76.15;99263.80;104891;1274;63084;-22
2022/09/09 08:06:39;;;;;;;5.80;2.90;;;;;;;11.83;74.57;99265.52;104951;1272;75674;-22
2022/09/09 08:09:07;;;;;;;7.90;3.30;;;;;;;11.80;73.83;99262.89;104618;1274;77249;-22
2022/09/09 08:11:35;;;;;;;5.10;3.20;;;;;;;11.52;74.59;99261.02;104697;1274;75532;-22
2022/09/09 08:14:07;;;;;;;5.00;3.40;;;;;;;11.25;75.76;99257.68;105061;1271;63138;-22
2022/09/09 08:16:37;;;;;;;5.40;3.20;;;;;;;11.09;76.28;99251.11;104717;1271;63057;-22
2022/09/09 08:19:07;;;;;;;3.80;2.40;;;;;;;10.94;77.38;99248.11;104662;1271;75295;-24
2022/09/09 08:21:36;;;;;;;6.20;3.20;;;;;;;11.37;76.30;99251.80;104992;1271;77408;-22
2022/09/09 08:24:04;;;;;;;8.60;4.40;;;;;;;11.54;75.40;99255.30;104844;1271;75441;-21
2022/09/09 08:26:34;;;;;;;7.20;3.60;;;;;;;11.57;75.11;99255.25;104921;1271;62676;-23
2022/09/09 08:29:03;;;;;;;6.50;3.10;;;;;;;11.43;75.40;99264.90;104559;1274;63003;-22
2022/09/09 08:31:33;;;;;;;5.70;3.60;;;;;;;11.22;75.92;99273.57;104707;1271;76903;-22
2022/09/09 08:34:00;;;;;;;4.60;2.90;;;;;;;11.06;77.10;99281.41;104727;1274;77268;-22
2022/09/09 08:36:29;;;;;;;3.80;2.50;;;;;;;11.50;77.29;99283.48;104776;1271;75114;-22
2022/09/09 08:38:57;;;;;;;4.30;2.60;;;;;;;12.00;75.42;99286.12;104695;1274;63018;-22
2022/09/09 08:41:43;;;;;;;4.40;2.40;;;;;;;12.08;74.58;99291.98;103900;1271;1517403;-22
2022/09/09 08:44:27;;;;;;;3.30;2.20;;;;;;;11.92;75.21;99295.69;104756;1271;76285;-22
2022/09/09 08:47:03;;;;;;;4.90;2.70;;;;;;;11.65;75.69;99302.27;105111;1271;76246;-22
2022/09/09 08:49:37;;;;;;;6.40;3.30;;;;;;;11.47;76.10;99306.15;104877;1271;75406;-22
2022/09/09 08:52:06;;;;;;;;;;;;;;;11.36;77.12;99311.56;104952;1271;64717;-22
2022/09/09 08:54:33;;;;;;;3.40;2.00;;;;;;;11.79;76.38;99308.23;105109;1272;61852;-22
2022/09/09 08:57:21;;;;;;;5.10;3.00;;;;;;;12.46;73.64;99306.52;105084;1271;76564;-22
2022/09/09 08:59:50;;;;;;;6.10;3.50;;;;;;;12.48;73.42;99303.36;104803;1271;76986;-22
2022/09/09 09:02:23;;;;;;;5.70;3.20;;;;;;;12.32;73.59;99299.73;104931;1271;75622;-22
2022/09/09 09:05:09;;;;;;;6.30;4.00;;;;;;;11.96;74.86;99297.14;104585;1274;61842;-21
2022/09/09 09:08:06;;;;;;;6.90;3.90;;;;;;;11.55;77.18;99292.66;105087;1271;61688;-22
2022/09/09 09:10:39;;;;;;;6.90;4.30;;;;;;;11.40;76.87;99298.19;105141;1273;74691;-21
2022/09/09 09:13:13;;;;;;;8.50;4.20;;;;;;;11.31;78.82;99293.70;104899;1271;76273;-24
2022/09/09 09:15:41;;;;;;;12.30;5.50;;;;;;;11.76;76.87;99282.10;104633;1271;75138;-22
2022/09/09 09:18:08;;;;;;;7.00;3.80;;;;;;;11.93;75.84;99276.61;104670;1272;62014;-22
2022/09/09 09:20:58;;;;;;;7.30;3.70;;;;;;;11.85;76.15;99281.33;104904;1271;63075;-24
2022/09/09 09:23:29;;;;;;;7.10;3.70;;;;;;;11.61;76.82;99286.95;104779;1274;75466;-22
2022/09/09 09:25:59;;;;;;;6.50;3.20;;;;;;;11.31;77.73;99285.37;104821;1271;76952;-22
2022/09/09 09:28:29;;;;;;;5.60;3.30;;;;;;;11.28;78.63;99293.03;104767;1271;75150;-22
2022/09/09 09:31:06;;;;;;;5.80;3.00;;;;;;;11.73;77.29;99295.30;104768;1271;62847;-22
2022/09/09 09:33:46;;;;;;;7.60;3.70;;;;;;;11.84;76.69;99292.69;105100;1271;63287;-22
2022/09/09 09:36:15;;;;;;;7.10;4.10;;;;;;;11.64;77.05;99293.48;105135;1271;76725;-22
2022/09/09 09:38:55;;;;;;;7.90;4.20;;;;;;;11.45;77.99;99298.15;104801;1274;76884;-23
2022/09/09 09:41:43;;;;;;;7.80;4.50;;;;;;;11.28;78.53;99295.35;104935;1271;75889;-22
2022/09/09 09:44:30;;;;;;;8.40;4.30;;;;;;;11.74;77.58;99289.30;105082;1271;63382;-22
2022/09/09 09:47:07;;;;;;;5.20;3.50;;;;;;;11.93;77.03;99283.78;105081;1271;63047;-22
2022/09/09 09:49:34;;;;;;;5.60;3.60;;;;;;;11.78;77.12;99282.92;104788;1271;76583;-22
2022/09/09 09:52:03;;;;;;;6.70;3.80;;;;;;;11.61;77.20;99286.92;104943;1271;77124;-22
2022/09/09 09:54:37;;;;;;;6.10;3.70;;;;;;;11.43;78.30;99289.40;104791;1271;74738;-22
2022/09/09 09:57:11;;;;;;;8.90;4.30;;;;;;;11.69;78.30;99292.85;104866;1274;61810;-22
2022/09/09 09:59:39;;;;;;;5.60;3.10;;;;;;;11.91;77.38;99291.83;104877;1271;62913;-23
2022/09/09 10:02:25;;;;;;;5.70;3.60;;;;;;;11.79;77.55;99294.16;105108;1271;75675;-22
2022/09/09 10:05:15;;;;;;;7.30;2.80;;;;;;;11.56;78.81;99293.41;104960;1271;77503;-22
2022/09/09 10:07:47;;;;;;;3.80;2.60;;;;;;;11.40;79.30;99295.08;104693;1274;75700;-20
2022/09/09 10:10:35;;;;;;;4.80;3.00;;;;;;;11.80;78.31;99289.53;104764;1274;63292;-23
2022/09/09 10:13:23;;;;;;;5.40;3.40;;;;;;;12.04;77.17;99291.10;105009;1271;61908;-23
2022/09/09 10:16:00;;;;;;;6.40;3.80;;;;;;;11.93;77.99;99297.86;105117;1271;75630;-23
2022/09/09 10:18:36;;;;;;;7.60;4.30;;;;;;;11.69;78.12;99303.48;104728;1271;75486;-23
2022/09/09 10:21:31;;;;;;;6.00;3.50;;;;;;;11.49;79.37;99309.27;104751;1271;73263;-24
2022/09/09 10:24:20;;;;;;;5.40;3.10;;;;;;;11.86;78.74;99305.79;105088;1271;61217;-23
2022/09/09 10:26:52;;;;;;;6.60;3.80;;;;;;;11.99;77.88;99294.98;105124;1271;62028;-22
2022/09/09 10:29:43;;;;;;;7.90;4.20;;;;;;;11.82;78.34;99285.37;104769;1274;75524;-23
2022/09/09 10:32:32;;;;;;;19.50;8.80;;;;;;;11.55;79.08;99281.48;104829;1271;76754;-23
2022/09/09 10:35:16;;;;;;;25.20;13.60;;;;;;;11.45;79.97;99273.06;104782;1272;74268;-22
2022/09/09 10:37:58;;;;;;;16.10;10.10;;;;;;;11.96;79.02;99273.63;104767;1271;61725;-22
2022/09/09 10:40:30;;;;;;;11.90;5.10;;;;;;;11.98;78.84;99274.29;105067;1271;62746;-22
2022/09/09 10:43:12;;;;;;;6.70;3.30;;;;;;;11.90;78.82;99279.69;104795;1271;75194;-22
2022/09/09 10:45:52;;;;;;;5.80;2.30;;;;;;;11.64;79.54;99284.04;105002;1274;75932;-22
2022/09/09 10:48:57;;;;;;;4.90;2.20;;;;;;;11.50;80.47;99288.35;104726;1271;75737;-22
2022/09/09 10:51:34;;;;;;;4.10;2.60;;;;;;;12.03;79.32;99284.16;105017;1274;63107;-22
2022/09/09 10:54:25;;;;;;;5.60;3.00;;;;;;;12.18;78.07;99283.48;104944;1274;63071;-23
2022/09/09 10:56:58;;;;;;;4.20;2.70;;;;;;;12.02;78.12;99273.69;104892;1274;76551;-22
2022/09/09 10:59:31;;;;;;;4.40;3.20;;;;;;;11.72;79.22;99267.59;104859;1272;75589;-22
2022/09/09 11:02:09;;;;;;;5.90;3.10;;;;;;;11.60;80.40;99272.75;105094;1271;74068;-22
2022/09/09 11:04:42;;;;;;;5.80;3.20;;;;;;;12.06;79.33;99272.16;105088;1271;63084;-23
2022/09/09 11:07:10;;;;;;;;;;;;;;;12.26;77.84;99275.31;104895;1274;61055;-23
2022/09/09 11:09:43;;;;;;;3.30;2.60;;;;;;;12.13;78.37;99278.88;105167;1271;74362;-22
2022/09/09 11:12:13;;;;;;;4.50;2.40;;;;;;;11.91;78.68;99278.59;105001;1271;76973;-21
2022/09/09 11:14:43;;;;;;;6.00;2.30;;;;;;;11.68;79.19;99274.21;105029;1271;74328;-24
2022/09/09 11:17:11;;;;;;;3.50;2.20;;;;;;;11.93;78.94;99268.98;104642;1272;63072;-24
2022/09/09 11:19:40;;;;;;;3.70;2.50;;;;;;;12.12;77.32;99261.51;104990;1272;61091;-21
2022/09/09 11:22:23;;;;;;;3.70;2.60;;;;;;;11.95;78.08;99265.73;105102;1272;76542;-23
2022/09/09 11:24:54;;;;;;;5.50;3.00;;;;;;;11.67;78.88;99261.56;105038;1271;77023;-21
2022/09/09 11:27:24;;;;;;;2.70;2.10;;;;;;;11.40;80.08;99257.86;104847;1271;75319;-24
2022/09/09 11:30:28;;;;;;;4.20;2.30;;;;;;;11.68;79.79;99257.86;104661;1271;61178;-24
2022/09/09 11:33:40;;;;;;;5.40;2.50;;;;;;;12.02;77.81;99252.25;105063;1271;61603;-21
2022/09/09 11:36:34;;;;;;;4.70;2.70;;;;;;;11.81;78.34;99251.89;105074;1271;75553;-24
2022/09/09 11:39:26;;;;;;;4.40;2.20;;;;;;;11.51;79.51;99251.02;105006;1271;76058;-24
2022/09/09 11:41:53;;;;;;;7.60;3.90;;;;;;;11.24;80.87;99252.17;105083;1271;74524;-24
2022/09/09 11:44:28;;;;;;;10.40;5.00;;;;;;;11.61;80.36;99251.10;105011;1271;63075;-22
2022/09/09 11:46:55;;;;;;;11.10;6.30;;;;;;;11.80;79.19;99252.86;104669;1271;62014;-21
2022/09/09 11:49:37;;;;;;;7.90;4.90;;;;;;;11.66;79.45;99253.33;104802;1274;76554;-22
2022/09/09 11:52:22;;;;;;;3.80;2.20;;;;;;;11.41;80.10;99254.85;104624;1274;77063;-21
2022/09/09 11:54:51;;;;;;;3.90;2.20;;;;;;;11.45;80.53;99254.11;104666;1274;73577;-22